createdAt,value
2023-05-26T00:02:31.125Z,100765.34
2023-05-26T00:05:36.683Z,100746.13
2023-05-26T00:08:40.088Z,100776.34
2023-05-26T00:11:42.506Z,100750.47
2023-05-26T00:14:44.964Z,100754.38
2023-05-26T00:17:48.500Z,100754.75
2023-05-26T00:20:50.985Z,100750.84
2023-05-26T00:23:53.393Z,100773.22
2023-05-26T00:26:55.857Z,100748.13
2023-05-26T00:29:59.407Z,100778.72
2023-05-26T00:33:02.100Z,100749.28
2023-05-26T00:36:04.705Z,100760.66
2023-05-26T00:39:07.279Z,100751.63
2023-05-26T00:42:12.647Z,100744.19
2023-05-26T00:45:15.283Z,100761.06
2023-05-26T00:48:19.017Z,100747.31
2023-05-26T00:51:22.081Z,100728.06
2023-05-26T00:54:24.790Z,100758.31
2023-05-26T00:57:29.116Z,100732.41
2023-05-26T01:00:32.106Z,100730.44
2023-05-26T01:03:35.380Z,100748.50
2023-05-26T01:06:43.126Z,100741.84
2023-05-26T01:09:45.693Z,100748.91
2023-05-26T01:12:58.359Z,100747.72
2023-05-26T01:16:08.090Z,100768.91
2023-05-26T01:19:35.997Z,100770.91
2023-05-26T01:22:49.306Z,100762.63
2023-05-26T01:26:13.692Z,100769.72
2023-05-26T01:29:17.586Z,100745.38
2023-05-26T01:32:21.398Z,100748.91
2023-05-26T01:35:24.924Z,100746.56
2023-05-26T01:38:27.461Z,100736.31
2023-05-26T01:41:44.219Z,100761.47
2023-05-26T01:44:52.220Z,100752.44
2023-05-26T01:47:57.131Z,100741.06
2023-05-26T01:51:02.406Z,100746.94
2023-05-26T01:54:09.925Z,100725.72
2023-05-26T01:57:14.111Z,100750.47
2023-05-26T02:00:25.147Z,100726.50
2023-05-26T02:03:27.806Z,100755.59
2023-05-26T02:06:30.566Z,100719.06
2023-05-26T02:09:33.437Z,100722.59
2023-05-26T02:12:37.613Z,100719.06
2023-05-26T02:15:40.450Z,100744.19
2023-05-26T02:18:47.034Z,100750.09
2023-05-26T02:21:49.977Z,100748.13
2023-05-26T02:24:55.847Z,100745.00
2023-05-26T02:27:58.236Z,100724.16
2023-05-26T02:31:00.779Z,100720.25
2023-05-26T02:34:05.880Z,100756.00
2023-05-26T02:37:08.382Z,100736.72
2023-05-26T02:40:11.264Z,100722.63
2023-05-26T02:43:13.760Z,100731.25
2023-05-26T02:46:16.414Z,100745.75
2023-05-26T02:49:22.252Z,100726.94
2023-05-26T02:52:24.870Z,100734.38
2023-05-26T02:58:29.697Z,100734.38
2023-05-26T03:01:33.337Z,100735.56
2023-05-26T03:04:36.004Z,100767.34
2023-05-26T03:07:38.380Z,100742.25
2023-05-26T03:10:41.223Z,100754.81
2023-05-26T03:13:44.532Z,100748.13
2023-05-26T03:16:47.364Z,100756.38
2023-05-26T03:19:49.831Z,100763.44
2023-05-26T03:22:53.087Z,100727.72
2023-05-26T03:25:57.259Z,100759.50
2023-05-26T03:29:01.056Z,100729.28
2023-05-26T03:32:03.607Z,100759.50
2023-05-26T03:35:07.210Z,100766.56
2023-05-26T03:38:09.615Z,100743.41
2023-05-26T03:41:14.279Z,100759.91
2023-05-26T03:44:27.728Z,100742.63
2023-05-26T03:47:30.193Z,100743.81
2023-05-26T03:50:32.672Z,100742.63
2023-05-26T03:53:35.360Z,100740.28
2023-05-26T03:56:39.416Z,100764.22
2023-05-26T03:59:42.240Z,100760.69
2023-05-26T04:02:45.450Z,100734.78
2023-05-26T04:05:48.843Z,100765.41
2023-05-26T04:08:51.261Z,100770.50
2023-05-26T04:11:53.766Z,100774.84
2023-05-26T04:14:56.408Z,100779.94
2023-05-26T04:17:58.913Z,100778.75
2023-05-26T04:21:01.540Z,100787.78
2023-05-26T04:24:04.490Z,100770.91
2023-05-26T04:27:08.934Z,100779.16
2023-05-26T04:30:40.330Z,100766.97
2023-05-26T04:33:51.802Z,100785.78
2023-05-26T04:37:27.683Z,100788.94
2023-05-26T04:40:33.298Z,100796.78
2023-05-26T04:43:36.244Z,100782.63
2023-05-26T04:46:39.229Z,100788.50
2023-05-26T04:49:43.650Z,100776.31
2023-05-26T04:52:46.400Z,100798.31
2023-05-26T04:55:49.008Z,100790.06
2023-05-26T04:58:53.309Z,100791.63
2023-05-26T05:01:55.973Z,100781.03
2023-05-26T05:05:09.354Z,100806.13
2023-05-26T05:08:11.865Z,100802.97
2023-05-26T05:11:14.459Z,100798.25
2023-05-26T05:14:18.952Z,100790.78
2023-05-26T05:17:22.696Z,100802.94
2023-05-26T05:20:28.277Z,100808.03
2023-05-26T05:23:35.396Z,100808.03
2023-05-26T05:26:40.421Z,100809.19
2023-05-26T05:29:44.007Z,100810.38
2023-05-26T05:32:46.820Z,100797.41
2023-05-26T05:35:54.216Z,100812.69
2023-05-26T05:38:56.902Z,100790.31
2023-05-26T05:41:59.552Z,100804.03
2023-05-26T05:45:03.448Z,100807.16
2023-05-26T05:48:26.340Z,100819.69
2023-05-26T05:51:35.276Z,100825.56
2023-05-26T05:54:38.183Z,100822.41
2023-05-26T05:57:44.287Z,100808.25
2023-05-26T06:00:47.964Z,100814.50
2023-05-26T06:03:54.799Z,100819.50
2023-05-26T06:06:58.629Z,100793.59
2023-05-26T06:10:02.150Z,100802.56
2023-05-26T06:13:05.090Z,100832.31
2023-05-26T06:16:08.346Z,100799.31
2023-05-26T06:19:11.195Z,100789.41
2023-05-26T06:22:14.906Z,100817.09
2023-05-26T06:25:17.664Z,100814.28
2023-05-26T06:28:20.514Z,100806.28
2023-05-26T06:31:23.930Z,100813.97
2023-05-26T06:34:33.762Z,100846.69
2023-05-26T06:37:36.275Z,100809.69
2023-05-26T06:40:38.796Z,100827.09
2023-05-26T06:43:42.131Z,100815.81
2023-05-26T06:46:45.562Z,100826.47
2023-05-26T06:50:02.705Z,100812.06
2023-05-26T06:53:06.579Z,100820.41
2023-05-26T06:56:09.152Z,100832.66
2023-05-26T06:59:13.598Z,100858.50
2023-05-26T07:02:16.249Z,100836.69
2023-05-26T07:05:19.466Z,100830.50
2023-05-26T07:08:25.224Z,100836.47
2023-05-26T07:11:30.152Z,100823.00
2023-05-26T07:14:37.899Z,100838.84
2023-05-26T07:17:41.150Z,100835.91
2023-05-26T07:20:43.968Z,100838.72
2023-05-26T07:23:49.787Z,100837.75
2023-05-26T07:26:54.255Z,100860.66
2023-05-26T07:29:56.708Z,100853.03
2023-05-26T07:32:59.270Z,100831.34
2023-05-26T07:36:02.110Z,100845.69
2023-05-26T07:39:04.980Z,100843.94
2023-05-26T07:42:07.829Z,100855.81
2023-05-26T07:45:11.114Z,100852.09
2023-05-26T07:48:16.316Z,100851.03
2023-05-26T07:51:18.908Z,100817.91
2023-05-26T07:54:21.359Z,100840.69
2023-05-26T07:57:30.145Z,100855.69
2023-05-26T08:00:33.167Z,100843.72
2023-05-26T08:03:35.956Z,100853.16
2023-05-26T08:06:39.779Z,100847.50
2023-05-26T08:09:42.474Z,100840.59
2023-05-26T08:12:45.341Z,100848.66
2023-05-26T08:15:48.237Z,100861.00
2023-05-26T08:18:50.977Z,100855.94
2023-05-26T08:21:53.889Z,100822.66
2023-05-26T08:24:56.595Z,100860.81
2023-05-26T08:27:59.015Z,100858.28
2023-05-26T08:31:01.709Z,100847.09
2023-05-26T08:34:04.178Z,100847.47
2023-05-26T08:37:06.599Z,100842.97
2023-05-26T08:40:11.013Z,100851.19
2023-05-26T08:43:15.479Z,100842.78
2023-05-26T08:46:18.219Z,100851.44
2023-05-26T08:49:22.013Z,100833.13
2023-05-26T08:52:24.718Z,100807.31
2023-05-26T08:55:28.440Z,100836.31
2023-05-26T08:58:34.929Z,100829.63
2023-05-26T09:01:38.062Z,100837.19
2023-05-26T09:04:40.724Z,100817.66
2023-05-26T09:07:43.122Z,100827.41
2023-05-26T09:10:45.895Z,100830.84
2023-05-26T09:13:58.556Z,100836.78
2023-05-26T09:17:01.202Z,100839.97
2023-05-26T09:20:07.200Z,100820.03
2023-05-26T09:23:10.313Z,100834.25
2023-05-26T09:26:12.779Z,100833.47
2023-05-26T09:29:16.187Z,100826.41
2023-05-26T09:32:18.776Z,100825.69
2023-05-26T09:35:23.047Z,100826.94
2023-05-26T09:38:25.607Z,100810.50
2023-05-26T09:41:41.108Z,100832.94
2023-05-26T09:44:51.744Z,100831.00
2023-05-26T09:47:57.650Z,100793.44
2023-05-26T09:51:00.219Z,100792.25
2023-05-26T09:54:03.475Z,100791.47
2023-05-26T09:57:12.874Z,100829.50
2023-05-26T10:00:19.238Z,100807.16
2023-05-26T10:03:22.697Z,100779.06
2023-05-26T10:06:25.651Z,100774.28
2023-05-26T10:09:33.337Z,100793.88
2023-05-26T10:12:36.648Z,100776.19
2023-05-26T10:15:39.337Z,100813.47
2023-05-26T10:18:41.786Z,100813.53
2023-05-26T10:21:49.438Z,100788.50
2023-05-26T10:25:03.252Z,100798.97
2023-05-26T10:28:28.868Z,100769.69
2023-05-26T10:31:33.077Z,100808.47
2023-05-26T10:34:40.503Z,100774.41
2023-05-26T10:37:49.407Z,100805.72
2023-05-26T10:40:52.453Z,100778.22
2023-05-26T10:43:55.462Z,100799.41
2023-05-26T10:47:05.849Z,100786.00
2023-05-26T10:50:11.131Z,100786.44
2023-05-26T10:53:22.160Z,100784.06
2023-05-26T10:56:42.008Z,100788.00
2023-05-26T10:59:44.454Z,100786.78
2023-05-26T11:02:47.153Z,100780.44
2023-05-26T11:05:58.224Z,100776.47
2023-05-26T11:09:03.888Z,100770.94
2023-05-26T11:12:07.689Z,100778.06
2023-05-26T11:15:27.340Z,100771.00
2023-05-26T11:18:31.154Z,100767.88
2023-05-26T11:21:35.904Z,100773.34
2023-05-26T11:24:38.421Z,100760.03
2023-05-26T11:27:46.763Z,100769.00
2023-05-26T11:30:49.288Z,100767.88
2023-05-26T11:33:51.690Z,100734.19
2023-05-26T11:36:55.246Z,100767.81
2023-05-26T11:39:59.011Z,100759.53
2023-05-26T11:43:01.485Z,100757.97
2023-05-26T11:46:07.326Z,100752.06
2023-05-26T11:49:17.046Z,100738.72
2023-05-26T11:52:24.289Z,100743.41
2023-05-26T11:55:26.795Z,100738.34
2023-05-26T11:58:29.301Z,100732.47
2023-05-26T12:01:32.784Z,100723.38
2023-05-26T12:04:35.426Z,100726.53
2023-05-26T12:07:37.957Z,100723.75
2023-05-26T12:10:43.524Z,100726.94
2023-05-26T12:13:46.533Z,100712.81
2023-05-26T12:16:54.948Z,100706.13
2023-05-26T12:19:57.524Z,100704.56
2023-05-26T12:23:03.677Z,100714.78
2023-05-26T12:26:21.398Z,100710.41
2023-05-26T12:29:23.805Z,100702.66
2023-05-26T12:32:26.250Z,100702.53
2023-05-26T12:35:28.689Z,100699.78
2023-05-26T12:38:43.469Z,100703.38
2023-05-26T12:41:46.898Z,100708.91
2023-05-26T12:44:49.348Z,100696.28
2023-05-26T12:47:51.888Z,100696.28
2023-05-26T12:50:54.345Z,100681.31
2023-05-26T12:53:56.807Z,100688.47
2023-05-26T12:56:59.270Z,100684.19
2023-05-26T13:00:01.715Z,100660.69
2023-05-26T13:03:05.063Z,100680.66
2023-05-26T13:06:10.226Z,100679.09
2023-05-26T13:09:13.721Z,100679.09
2023-05-26T13:12:16.176Z,100667.31
2023-05-26T13:15:19.569Z,100664.97
2023-05-26T13:18:26.073Z,100657.13
2023-05-26T13:21:29.228Z,100664.97
2023-05-26T13:24:31.655Z,100663.41
2023-05-26T13:27:34.095Z,100661.84
2023-05-26T13:30:36.501Z,100654.75
2023-05-26T13:33:38.881Z,100651.97
2023-05-26T13:36:41.612Z,100647.66
2023-05-26T13:39:44.103Z,100640.31
2023-05-26T13:42:47.838Z,100646.56
2023-05-26T13:45:54.494Z,100650.53
2023-05-26T13:48:57.424Z,100660.31
2023-05-26T13:52:05.253Z,100660.31
2023-05-26T13:55:08.457Z,100650.94
2023-05-26T13:58:19.979Z,100634.94
2023-05-26T14:01:36.118Z,100657.97
2023-05-26T14:04:43.711Z,100649.38
2023-05-26T14:07:47.115Z,100649.69
2023-05-26T14:10:52.083Z,100648.13
2023-05-26T14:13:55.390Z,100639.94
2023-05-26T14:16:58.077Z,100657.59
2023-05-26T14:20:07.252Z,100645.78
2023-05-26T14:23:10.906Z,100629.22
2023-05-26T14:26:13.868Z,100637.53
2023-05-26T14:29:16.407Z,100639.13
2023-05-26T14:32:18.871Z,100644.63
2023-05-26T14:35:21.270Z,100624.25
2023-05-26T14:38:23.772Z,100642.34
2023-05-26T14:41:27.163Z,100647.41
2023-05-26T14:44:29.626Z,100636.75
2023-05-26T14:47:32.103Z,100623.44
2023-05-26T14:50:34.626Z,100632.50
2023-05-26T14:53:37.252Z,100625.03
2023-05-26T14:56:39.902Z,100626.19
2023-05-26T14:59:42.472Z,100628.59
2023-05-26T15:02:45.974Z,100628.59
2023-05-26T15:05:48.712Z,100627.03
2023-05-26T15:08:51.272Z,100622.69
2023-05-26T15:11:53.653Z,100617.22
2023-05-26T15:14:57.450Z,100619.56
2023-05-26T15:17:59.859Z,100613.31
2023-05-26T15:21:03.887Z,100609.38
2023-05-26T15:24:07.947Z,100616.84
2023-05-26T15:27:11.365Z,100612.53
2023-05-26T15:33:22.532Z,100625.13
2023-05-26T15:36:26.213Z,100618.84
2023-05-26T15:39:28.936Z,100623.56
2023-05-26T15:42:31.392Z,100616.50
2023-05-26T15:45:33.887Z,100625.94
2023-05-26T15:48:36.695Z,100626.34
2023-05-26T15:51:39.204Z,100627.59
2023-05-26T15:54:41.771Z,100628.75
2023-05-26T15:57:44.203Z,100627.28
2023-05-26T16:00:46.704Z,100635.56
2023-05-26T16:03:49.328Z,100623.41
2023-05-26T16:06:51.866Z,100645.34
2023-05-26T16:09:54.343Z,100646.13
2023-05-26T16:12:56.801Z,100643.47
2023-05-26T16:16:00.630Z,100646.59
2023-05-26T16:19:03.134Z,100638.38
2023-05-26T16:22:05.576Z,100649.31
2023-05-26T16:25:08.560Z,100645.03
2023-05-26T16:28:10.988Z,100634.09
2023-05-26T16:31:13.662Z,100645.06
2023-05-26T16:34:16.281Z,100636.44
2023-05-26T16:37:19.124Z,100648.16
2023-05-26T16:40:21.539Z,100648.56
2023-05-26T16:46:34.308Z,100644.72
2023-05-26T16:49:36.715Z,100651.38
2023-05-26T16:52:39.097Z,100641.63
2023-05-26T16:55:41.515Z,100640.88
2023-05-26T16:58:43.964Z,100664.41
2023-05-26T17:01:46.464Z,100663.25
2023-05-26T17:04:48.864Z,100659.75
2023-05-26T17:07:51.522Z,100672.31
2023-05-26T17:10:56.165Z,100677.50
2023-05-26T17:13:58.842Z,100677.47
2023-05-26T17:17:04.608Z,100686.50
2023-05-26T17:20:08.510Z,100681.44
2023-05-26T17:23:12.623Z,100679.09
2023-05-26T17:26:15.100Z,100682.28
2023-05-26T17:29:17.673Z,100692.06
2023-05-26T17:32:20.108Z,100688.97
2023-05-26T17:35:23.047Z,100703.53
2023-05-26T17:38:25.572Z,100690.22
2023-05-26T17:41:27.933Z,100683.97
2023-05-26T17:44:30.457Z,100708.31
2023-05-26T17:47:32.893Z,100712.66
2023-05-26T17:50:36.018Z,100718.56
2023-05-26T17:53:38.617Z,100702.88
2023-05-26T17:56:41.706Z,100709.94
2023-05-26T17:59:44.172Z,100709.13
2023-05-26T18:02:46.654Z,100712.28
2023-05-26T18:05:49.171Z,100706.81
2023-05-26T18:08:53.685Z,100719.78
2023-05-26T18:11:56.047Z,100706.06
2023-05-26T18:14:58.427Z,100717.84
2023-05-26T18:18:01.348Z,100713.19
2023-05-26T18:21:04.157Z,100724.59
2023-05-26T18:24:07.259Z,100728.13
2023-05-26T18:27:09.817Z,100737.59
2023-05-26T18:30:15.846Z,100722.69
2023-05-26T18:33:18.317Z,100738.44
2023-05-26T18:36:20.870Z,100732.19
2023-05-26T18:39:23.328Z,100747.94
2023-05-26T18:42:25.720Z,100743.28
2023-05-26T18:45:28.099Z,100747.22
2023-05-26T18:48:30.479Z,100758.25
2023-05-26T18:51:33.852Z,100761.06
2023-05-26T18:54:36.397Z,100774.81
2023-05-26T18:57:38.831Z,100777.97
2023-05-26T19:00:42.772Z,100770.94
2023-05-26T19:03:45.276Z,100762.69
2023-05-26T19:06:47.800Z,100783.16
2023-05-26T19:09:50.258Z,100784.75
2023-05-26T19:12:52.678Z,100792.66
2023-05-26T19:15:55.126Z,100776.94
2023-05-26T19:18:58.098Z,100785.22
2023-05-26T19:22:00.490Z,100790.69
2023-05-26T19:25:04.469Z,100800.16
2023-05-26T19:28:06.893Z,100796.25
2023-05-26T19:31:09.473Z,100798.25
2023-05-26T19:34:12.972Z,100793.53
2023-05-26T19:37:15.508Z,100790.41
2023-05-26T19:40:17.896Z,100803.41
2023-05-26T19:43:21.335Z,100793.59
2023-05-26T19:46:24.011Z,100809.31
2023-05-26T19:49:29.210Z,100812.09
2023-05-26T19:52:31.692Z,100817.63
2023-05-26T19:55:34.105Z,100813.28
2023-05-26T19:58:36.517Z,100818.81
2023-05-26T20:01:39.801Z,100813.34
2023-05-26T20:04:42.641Z,100820.81
2023-05-26T20:07:45.079Z,100821.59
2023-05-26T20:10:47.724Z,100823.59
2023-05-26T20:13:50.105Z,100819.66
2023-05-26T20:16:52.882Z,100814.16
2023-05-26T20:20:11.964Z,100821.63
2023-05-26T20:23:16.292Z,100820.50
2023-05-26T20:26:18.732Z,100832.66
2023-05-26T20:29:22.176Z,100837.38
2023-05-26T20:32:25.400Z,100832.28
2023-05-26T20:35:27.842Z,100829.50
2023-05-26T20:38:30.876Z,100816.59
2023-05-26T20:41:33.258Z,100831.53
2023-05-26T20:44:36.108Z,100828.78
2023-05-26T20:47:38.584Z,100828.00
2023-05-26T20:50:41.317Z,100848.44
2023-05-26T20:53:47.031Z,100837.41
2023-05-26T20:56:49.458Z,100844.53
2023-05-26T20:59:51.890Z,100840.97
2023-05-26T21:02:54.389Z,100845.69
2023-05-26T21:05:56.980Z,100844.53
2023-05-26T21:08:59.432Z,100850.03
2023-05-26T21:12:03.018Z,100851.63
2023-05-26T21:15:05.958Z,100852.00
2023-05-26T21:18:08.468Z,100841.81
2023-05-26T21:21:11.174Z,100852.41
2023-05-26T21:24:13.606Z,100856.34
2023-05-26T21:27:16.337Z,100843.00
2023-05-26T21:30:20.679Z,100855.56
2023-05-26T21:33:23.428Z,100854.78
2023-05-26T21:36:26.002Z,100848.88
2023-05-26T21:39:28.483Z,100850.88
2023-05-26T21:42:30.892Z,100859.91
2023-05-26T21:45:33.755Z,100845.78
2023-05-26T21:48:36.174Z,100857.19
2023-05-26T21:51:38.670Z,100862.69
2023-05-26T21:54:42.894Z,100854.81
2023-05-26T21:57:45.794Z,100852.06
2023-05-26T22:00:48.317Z,100861.50
2023-05-26T22:03:51.156Z,100861.91
2023-05-26T22:06:53.649Z,100851.31
2023-05-26T22:09:56.089Z,100859.16
2023-05-26T22:12:58.664Z,100857.19
2023-05-26T22:16:01.569Z,100849.34
2023-05-26T22:19:04.236Z,100856.00
2023-05-26T22:22:06.705Z,100858.00
2023-05-26T22:25:09.655Z,100862.69
2023-05-26T22:28:12.311Z,100857.19
2023-05-26T22:31:14.866Z,100867.81
2023-05-26T22:34:17.312Z,100860.34
2023-05-26T22:37:19.801Z,100873.72
2023-05-26T22:40:22.312Z,100863.09
2023-05-26T22:43:24.743Z,100859.59
2023-05-26T22:46:27.289Z,100852.09
2023-05-26T22:49:29.700Z,100867.44
2023-05-26T22:52:33.092Z,100861.16
2023-05-26T22:55:47.015Z,100865.88
2023-05-26T22:58:53.801Z,100859.19
2023-05-26T23:01:56.193Z,100865.06
2023-05-26T23:04:58.667Z,100854.84
2023-05-26T23:08:01.241Z,100852.09
2023-05-26T23:11:04.000Z,100867.44
2023-05-26T23:14:06.406Z,100857.22
2023-05-26T23:17:08.913Z,100869.03
2023-05-26T23:20:11.765Z,100864.69
2023-05-26T23:23:14.400Z,100868.63
2023-05-26T23:26:16.855Z,100876.09
2023-05-26T23:29:26.945Z,100870.59
2023-05-26T23:32:29.412Z,100882.81
2023-05-26T23:35:31.849Z,100875.72
2023-05-26T23:38:34.297Z,100869.81
2023-05-26T23:41:36.792Z,100874.53
2023-05-26T23:44:39.422Z,100881.59
2023-05-26T23:47:41.979Z,100869.03
2023-05-26T23:50:44.465Z,100874.94
2023-05-26T23:53:47.014Z,100873.75
2023-05-26T23:56:49.423Z,100875.69
2023-05-26T23:59:51.923Z,100880.84
